• Join FlightAware (Why Join?)
  • Login
  • US Flag 
04:11PM EDT


 

Airport Tracker/Info


-or-


 

Live Flight TrackerFlight Track Log ✈ G52652 ✈ 08-Sep-2013 ✈ ZGNN / NNG - ZUCK / CKG

Flight Track Log - Related Links

Times and Time Zones

All times are in EDT time to prevent confusion due to time zone crossing. See the G52652 flight status page for this flight to view local times or setup timezone preferences in your user account.

Time Position Orientation Groundspeed Altitude Reporting Facility
EDT Latitude Longitude Course Direction KTS MPH feet Rate Location/Type
12:43AM 23.3202 108.0272 349° North  Level Estimated
12:44AM 23.4091 108.0090 349° North  Level Estimated
12:45AM 23.4981 107.9907 349° North  Level Estimated
12:46AM 23.5871 107.9724 349° North  Level Estimated
12:47AM 23.6760 107.9540 349° North  Level Estimated
12:48AM 23.7650 107.9357 349° North  Level Estimated
12:49AM 23.8540 107.9173 349° North  Level Estimated
12:50AM 23.9429 107.8989 349° North  Level Estimated
12:51AM 24.0319 107.8805 349° North  Level Estimated
12:52AM 24.1209 107.8620 349° North  Level Estimated
12:53AM 24.2098 107.8435 349° North  Level Estimated
12:54AM 24.2988 107.8250 349° North  Level Estimated
12:55AM 24.3877 107.8065 349° North  Level Estimated
12:56AM 24.4767 107.7879 349° North  Level Estimated
12:57AM 24.5656 107.7693 349° North  Level Estimated
12:58AM 24.6546 107.7507 349° North  Level Estimated
12:59AM 24.7435 107.7320 349° North  Level Estimated
01:00AM 24.8325 107.7134 349° North  Level Estimated
01:01AM 24.9214 107.6947 349° North  Level Estimated
01:02AM 25.0103 107.6760 349° North  Level Estimated
01:03AM 25.0993 107.6572 349° North  Level Estimated
01:04AM 25.1882 107.6384 349° North  Level Estimated
01:05AM 25.2771 107.6196 349° North  Level Estimated
01:06AM 25.3661 107.6008 349° North  Level Estimated
01:07AM 25.4550 107.5819 349° North  Level Estimated
01:08AM 25.5439 107.5630 349° North  Level Estimated
01:09AM 25.6328 107.5441 349° North  Level Estimated
01:10AM 25.7217 107.5252 349° North  Level Estimated
01:11AM 25.8106 107.5062 349° North  Level Estimated
01:12AM 25.8995 107.4872 349° North  Level Estimated
01:13AM 25.9885 107.4682 349° North  Level Estimated
01:14AM 26.0774 107.4491 349° North  Level Estimated
01:15AM 26.1663 107.4300 349° North  Level Estimated
01:16AM 26.2552 107.4109 349° North  Level Estimated
01:17AM 26.3441 107.3917 349° North  Level Estimated
01:18AM 26.4330 107.3726 349° North  Level Estimated
01:19AM 26.5219 107.3534 349° North  Level Estimated
01:20AM 26.6108 107.3341 349° North  Level Estimated
01:21AM 26.6996 107.3148 349° North  Level Estimated
01:22AM 26.7885 107.2955 349° North  Level Estimated
01:23AM 26.8774 107.2762 349° North  Level Estimated
01:24AM 26.9663 107.2569 349° North  Level Estimated
01:25AM 27.0552 107.2375 349° North  Level Estimated
01:26AM 27.1441 107.2180 349° North  Level Estimated
01:27AM 27.2329 107.1986 349° North  Level Estimated
01:28AM 27.3218 107.1791 349° North  Level Estimated
01:29AM 27.4107 107.1596 349° North  Level Estimated
01:30AM 27.4995 107.1401 349° North  Level Estimated
01:31AM 27.5884 107.1205 349° North  Level Estimated
01:32AM 27.6772 107.1009 349° North  Level Estimated
01:33AM 27.7661 107.0813 349° North  Level Estimated
01:34AM 27.8550 107.0616 349° North  Level Estimated
01:35AM 27.9438 107.0419 349° North  Level Estimated
01:36AM 28.0327 107.0222 349° North  Level Estimated
01:37AM 28.1215 107.0024 349° North  Level Estimated
01:38AM 28.2104 106.9826 349° North  Level Estimated
01:39AM 28.2992 106.9628 349° North  Level Estimated
01:40AM 28.3880 106.9429 349° North  Level Estimated
01:41AM 28.4769 106.9230 349° North  Level Estimated
01:42AM 28.5657 106.9031 349° North  Level Estimated
01:43AM 28.6545 106.8831 349° North  Level Estimated
01:44AM 28.7433 106.8631 349° North  Level Estimated
01:45AM 28.8322 106.8431 349° North  Level Estimated
01:46AM 28.9210 106.8230 349° North  Level Estimated
01:47AM 29.0098 106.8029 349° North  Level Estimated
01:48AM 29.0986 106.7828 349° North  Level Estimated
01:49AM 29.1874 106.7626 349° North  Level Estimated
01:50AM 29.2762 106.7424 349° North  Level Estimated
01:51AM 29.3650 106.7221 349° North  Level Estimated
01:52AM 29.4538 106.7019 349° North  Level Estimated
01:53AM 29.5426 106.6815 349° North  Level Estimated
01:54AM 29.6314 106.6612 349° North  Level Estimated
01:55AM 29.7194 106.6410 349° North  Level Estimated
01:56AM 29.7194 106.6410 60° Northeast  Level Estimated
01:57AM 29.7194 106.6410 60° Northeast  Level Estimated
01:58AM 29.7194 106.6410 60° Northeast  Level Estimated
01:59AM 29.7194 106.6410 60° Northeast  Level Estimated
02:00AM 29.7194 106.6410 60° Northeast  Level Estimated
02:01AM 29.7194 106.6410 60° Northeast  Level Estimated
02:02AM 29.7194 106.6410 60° Northeast  Level Estimated
02:03AM 29.7194 106.6410 60° Northeast  Level Estimated
02:04AM 29.7194 106.6410 60° Northeast  Level Estimated
02:05AM 29.7194 106.6410 60° Northeast  Level Estimated
02:06AM 29.7194 106.6410 60° Northeast  Level Estimated
02:07AM 29.7194 106.6410 60° Northeast  Level Estimated
02:08AM 29.7194 106.6410 60° Northeast  Level Estimated
02:09AM 29.7194 106.6410 60° Northeast  Level Estimated
02:10AM 29.7194 106.6410 60° Northeast  Level Estimated
02:11AM 29.7194 106.6410 60° Northeast  Level Estimated